createdAt,value
2022-11-18T00:02:13.268Z,14.68
2022-11-18T00:04:42.807Z,14.98
2022-11-18T00:07:12.407Z,16.05
2022-11-18T00:09:44.466Z,15.85
2022-11-18T00:12:26.478Z,14.27
2022-11-18T00:14:56.019Z,15.35
2022-11-18T00:17:25.445Z,14.82
2022-11-18T00:19:55.009Z,15.68
2022-11-18T00:22:29.762Z,15.05
2022-11-18T00:25:02.046Z,15.07
2022-11-18T00:27:32.541Z,14.40
2022-11-18T00:30:02.010Z,14.95
2022-11-18T00:32:32.503Z,15.30
2022-11-18T00:35:02.224Z,16.00
2022-11-18T00:37:31.740Z,14.40
2022-11-18T00:40:03.859Z,14.23
2022-11-18T00:42:45.800Z,14.38
2022-11-18T00:45:16.456Z,15.60
2022-11-18T00:47:45.845Z,15.88
2022-11-18T00:50:15.776Z,15.20
2022-11-18T00:52:45.365Z,14.85
2022-11-18T00:55:17.856Z,15.32
2022-11-18T00:57:47.309Z,15.73
2022-11-18T01:00:17.851Z,14.07
2022-11-18T01:02:47.366Z,15.82
2022-11-18T01:05:16.834Z,14.90
2022-11-18T01:07:46.265Z,13.63
2022-11-18T01:10:18.973Z,14.38
2022-11-18T01:13:00.994Z,14.98
2022-11-18T01:15:30.422Z,15.23
2022-11-18T01:17:59.827Z,16.67
2022-11-18T01:20:29.270Z,15.82
2022-11-18T01:22:58.710Z,15.38
2022-11-18T01:25:30.826Z,16.08
2022-11-18T01:28:00.227Z,17.77
2022-11-18T01:30:29.694Z,16.63
2022-11-18T01:32:59.142Z,16.55
2022-11-18T01:35:28.586Z,15.98
2022-11-18T01:37:58.078Z,17.20
2022-11-18T01:40:30.473Z,16.05
2022-11-18T01:43:00.039Z,15.27
2022-11-18T01:45:38.257Z,16.42
2022-11-18T01:48:09.782Z,17.05
2022-11-18T01:50:42.029Z,16.30
2022-11-18T01:53:14.364Z,17.00
2022-11-18T01:55:49.007Z,16.17
2022-11-18T01:58:21.783Z,16.77
2022-11-18T02:00:51.271Z,17.95
2022-11-18T02:03:20.909Z,17.90
2022-11-18T02:05:51.288Z,17.08
2022-11-18T02:08:22.011Z,18.35
2022-11-18T02:10:53.997Z,18.08
2022-11-18T02:13:24.041Z,18.23
2022-11-18T02:15:58.570Z,16.45
2022-11-18T02:18:34.211Z,17.42
2022-11-18T02:21:14.840Z,18.55
2022-11-18T02:24:04.850Z,19.17
2022-11-18T02:27:11.761Z,25.27
2022-11-18T02:29:45.819Z,22.80
2022-11-18T02:32:18.379Z,19.75
2022-11-18T02:34:52.062Z,20.95
2022-11-18T02:37:25.849Z,22.38
2022-11-18T02:39:59.914Z,21.05
2022-11-18T02:42:30.337Z,20.52
2022-11-18T02:45:07.249Z,20.08
2022-11-18T02:47:38.126Z,18.45
2022-11-18T02:50:10.358Z,19.08
2022-11-18T02:52:42.078Z,18.50
2022-11-18T02:55:14.093Z,15.85
2022-11-18T02:57:44.418Z,16.90
2022-11-18T03:00:17.989Z,17.73
2022-11-18T03:02:48.541Z,18.08
2022-11-18T03:05:22.114Z,16.83
2022-11-18T03:07:55.390Z,15.70
2022-11-18T03:10:26.894Z,15.68
2022-11-18T03:13:02.942Z,15.82
2022-11-18T03:15:38.737Z,16.23
2022-11-18T03:18:21.168Z,16.38
2022-11-18T03:20:52.886Z,14.70
2022-11-18T03:23:27.394Z,16.17
2022-11-18T03:25:58.522Z,17.10
2022-11-18T03:28:32.548Z,17.10
2022-11-18T03:31:08.502Z,26.43
2022-11-18T03:33:39.261Z,36.43
2022-11-18T03:36:10.729Z,29.40
2022-11-18T03:38:43.536Z,32.87
2022-11-18T03:41:14.202Z,26.73
2022-11-18T03:43:47.727Z,18.83
2022-11-18T03:46:23.360Z,15.80
2022-11-18T03:48:54.869Z,14.20
2022-11-18T03:51:26.372Z,16.73
2022-11-18T03:53:59.276Z,13.23
2022-11-18T03:56:32.774Z,13.80
2022-11-18T03:59:08.294Z,15.67
2022-11-18T04:01:45.916Z,15.33
2022-11-18T04:04:16.144Z,14.53
2022-11-18T04:06:49.057Z,14.60
2022-11-18T04:09:23.088Z,15.00
2022-11-18T04:12:08.219Z,14.23
2022-11-18T04:14:39.635Z,13.47
2022-11-18T04:17:14.191Z,14.73
2022-11-18T04:19:44.007Z,14.67
2022-11-18T04:22:14.078Z,15.00
2022-11-18T04:24:43.491Z,17.00
2022-11-18T04:27:12.972Z,16.53
2022-11-18T04:29:42.529Z,16.02
2022-11-18T04:32:14.535Z,14.73
2022-11-18T04:34:43.938Z,16.70
2022-11-18T04:37:13.393Z,17.08
2022-11-18T04:39:42.856Z,16.55
2022-11-18T04:42:14.624Z,17.42
2022-11-18T04:44:44.023Z,18.63
2022-11-18T04:47:16.147Z,17.52
2022-11-18T04:49:45.724Z,16.70
2022-11-18T04:52:15.186Z,18.60
2022-11-18T04:54:44.758Z,18.55
2022-11-18T04:57:14.202Z,18.10
2022-11-18T04:59:43.835Z,18.75
2022-11-18T05:02:15.793Z,18.30
2022-11-18T05:04:45.258Z,17.80
2022-11-18T05:07:17.131Z,18.10
2022-11-18T05:09:46.631Z,16.90
2022-11-18T05:12:29.578Z,17.20
2022-11-18T05:14:59.096Z,18.23
2022-11-18T05:17:31.323Z,18.77
2022-11-18T05:20:00.771Z,19.00
2022-11-18T05:22:30.562Z,17.40
2022-11-18T05:25:00.101Z,17.20
2022-11-18T05:27:29.541Z,19.67
2022-11-18T05:29:59.158Z,18.27
2022-11-18T05:32:31.209Z,18.40
2022-11-18T05:35:00.646Z,18.30
2022-11-18T05:37:30.119Z,18.50
2022-11-18T05:39:59.558Z,19.60
2022-11-18T05:42:41.551Z,17.80
2022-11-18T05:45:12.041Z,18.80
2022-11-18T05:47:56.394Z,19.63
2022-11-18T05:50:25.881Z,19.08
2022-11-18T05:52:55.370Z,19.55
2022-11-18T05:55:27.466Z,18.83
2022-11-18T05:57:56.846Z,18.95
2022-11-18T06:00:26.679Z,19.88
2022-11-18T06:02:59.493Z,19.77
2022-11-18T06:05:29.473Z,19.35
2022-11-18T06:07:59.739Z,19.63
2022-11-18T06:10:31.800Z,18.15
2022-11-18T06:13:04.896Z,19.38
2022-11-18T06:15:36.435Z,19.35
2022-11-18T06:18:11.189Z,19.10
2022-11-18T06:20:42.292Z,20.33
2022-11-18T06:23:11.788Z,21.10
2022-11-18T06:25:41.608Z,19.95
2022-11-18T06:28:13.750Z,18.77
2022-11-18T06:30:43.246Z,19.25
2022-11-18T06:33:15.462Z,19.38
2022-11-18T06:35:45.141Z,19.60
2022-11-18T06:38:14.589Z,18.45
2022-11-18T06:40:44.809Z,19.30
2022-11-18T06:43:30.433Z,19.85
2022-11-18T06:46:14.068Z,18.10
2022-11-18T06:48:46.164Z,19.15
2022-11-18T06:51:16.025Z,19.27
2022-11-18T06:53:45.722Z,20.52
2022-11-18T06:56:16.781Z,20.85
2022-11-18T06:58:46.298Z,21.00
2022-11-18T07:01:17.153Z,19.75
2022-11-18T07:03:49.514Z,19.58
2022-11-18T07:06:20.713Z,18.65
2022-11-18T07:08:50.566Z,18.38
2022-11-18T07:11:21.583Z,17.33
2022-11-18T07:13:51.051Z,18.77
2022-11-18T07:16:22.002Z,17.90
2022-11-18T07:18:55.178Z,18.17
2022-11-18T07:21:26.266Z,20.10
2022-11-18T07:23:55.873Z,18.90
2022-11-18T07:26:25.817Z,19.98
2022-11-18T07:28:56.608Z,23.50
2022-11-18T07:31:26.028Z,52.83
2022-11-18T07:33:58.331Z,21.50
2022-11-18T07:36:35.168Z,19.93
2022-11-18T07:39:06.050Z,22.67
2022-11-18T07:41:35.617Z,20.70
2022-11-18T07:44:07.451Z,17.90
2022-11-18T07:46:38.008Z,20.77
2022-11-18T07:49:11.564Z,20.13
2022-11-18T07:51:43.133Z,19.67
2022-11-18T07:54:14.137Z,17.02
2022-11-18T07:56:43.573Z,18.90
2022-11-18T07:59:13.064Z,18.63
2022-11-18T08:01:42.516Z,20.70
2022-11-18T08:04:15.410Z,18.40
2022-11-18T08:06:44.887Z,24.00
2022-11-18T08:09:15.172Z,21.38
2022-11-18T08:11:47.492Z,29.77
2022-11-18T08:14:16.913Z,41.27
2022-11-18T08:16:46.436Z,24.67
2022-11-18T08:19:18.819Z,28.60
2022-11-18T08:21:48.386Z,19.10
2022-11-18T08:24:17.785Z,25.37
2022-11-18T08:26:47.360Z,25.57
2022-11-18T08:29:20.343Z,19.70
2022-11-18T08:31:54.765Z,17.30
2022-11-18T08:34:26.724Z,15.57
2022-11-18T08:36:56.163Z,15.67
2022-11-18T08:39:26.389Z,15.00
2022-11-18T08:41:55.825Z,14.03
2022-11-18T08:44:25.233Z,13.60
2022-11-18T08:46:54.605Z,12.93
2022-11-18T08:49:32.216Z,13.90
2022-11-18T08:52:02.031Z,14.60
2022-11-18T08:54:31.689Z,11.90
2022-11-18T08:57:01.060Z,13.63
2022-11-18T08:59:30.500Z,12.43
2022-11-18T09:02:00.003Z,12.63
2022-11-18T09:04:32.266Z,21.17
2022-11-18T09:07:03.006Z,14.53
2022-11-18T09:09:32.689Z,15.00
2022-11-18T09:12:02.193Z,18.67
2022-11-18T09:17:21.634Z,11.50
2022-11-18T09:19:53.733Z,10.90
2022-11-18T09:22:23.149Z,11.10
2022-11-18T09:24:55.410Z,11.27
2022-11-18T09:27:25.078Z,10.10
2022-11-18T09:29:54.479Z,10.18
2022-11-18T09:32:24.036Z,10.03
2022-11-18T09:34:56.029Z,10.57
2022-11-18T09:37:25.509Z,9.57
2022-11-18T09:39:56.017Z,9.40
2022-11-18T09:42:37.300Z,10.63
2022-11-18T09:45:20.725Z,8.90
2022-11-18T09:47:53.483Z,10.03
2022-11-18T09:53:21.147Z,11.17
2022-11-18T09:55:51.975Z,10.50
2022-11-18T09:58:24.809Z,10.10
2022-11-18T10:00:54.907Z,9.60
2022-11-18T10:03:30.497Z,12.63
2022-11-18T10:06:07.298Z,9.33
2022-11-18T10:08:45.406Z,8.90
2022-11-18T10:11:18.148Z,17.97
2022-11-18T10:13:57.749Z,9.10
2022-11-18T10:16:39.407Z,10.70
2022-11-18T10:19:15.962Z,7.97
2022-11-18T10:21:54.812Z,8.10
2022-11-18T10:24:26.406Z,9.83
2022-11-18T10:26:58.883Z,13.23
2022-11-18T10:29:28.780Z,7.37
2022-11-18T10:32:08.780Z,8.90
2022-11-18T10:34:49.978Z,6.57
2022-11-18T10:38:00.290Z,6.90
2022-11-18T10:40:27.545Z,7.80
2022-11-18T10:42:57.086Z,12.13
2022-11-18T10:45:32.091Z,24.93
2022-11-18T10:48:10.125Z,22.80
2022-11-18T10:50:41.478Z,31.17
2022-11-18T10:53:32.264Z,12.33
2022-11-18T10:56:03.296Z,8.07
2022-11-18T10:58:34.319Z,12.60
2022-11-18T11:01:22.380Z,7.20
2022-11-18T11:03:59.954Z,6.10
2022-11-18T11:06:34.608Z,6.60
2022-11-18T11:09:10.141Z,12.47
2022-11-18T11:11:43.576Z,7.13
2022-11-18T11:14:26.364Z,6.20
2022-11-18T11:17:00.930Z,5.70
2022-11-18T11:19:38.575Z,9.30
2022-11-18T11:22:11.972Z,6.65
2022-11-18T11:24:44.172Z,5.80
2022-11-18T11:30:21.920Z,5.67
2022-11-18T11:33:12.475Z,6.60
2022-11-18T11:35:54.281Z,6.00
2022-11-18T11:38:33.897Z,6.90
2022-11-18T11:41:09.804Z,5.93
2022-11-18T11:43:49.150Z,5.77
2022-11-18T11:46:28.941Z,6.60
2022-11-18T11:49:02.729Z,5.93
2022-11-18T11:51:36.860Z,5.10
2022-11-18T11:54:36.393Z,5.10
2022-11-18T11:57:20.327Z,10.17
2022-11-18T11:59:54.575Z,8.40
2022-11-18T12:02:36.420Z,5.50
2022-11-18T12:05:11.746Z,5.73
2022-11-18T12:07:44.440Z,11.27
2022-11-18T12:10:33.403Z,6.10
2022-11-18T12:13:20.403Z,5.30
2022-11-18T12:15:58.670Z,6.10
2022-11-18T12:18:33.136Z,4.97
2022-11-18T12:21:02.961Z,6.73
2022-11-18T12:23:33.191Z,5.60
2022-11-18T12:26:08.348Z,5.13
2022-11-18T12:28:42.812Z,9.50
2022-11-18T12:31:34.702Z,15.60
2022-11-18T12:34:22.360Z,10.80
2022-11-18T12:36:51.925Z,5.30
2022-11-18T12:39:49.931Z,6.23
2022-11-18T12:42:56.474Z,8.87
2022-11-18T12:45:53.083Z,8.67
2022-11-18T12:48:34.839Z,21.77
2022-11-18T12:51:05.490Z,15.77
2022-11-18T12:53:38.771Z,14.03
2022-11-18T12:56:26.380Z,12.00
2022-11-18T12:58:57.579Z,22.30
2022-11-18T13:01:32.103Z,13.53
2022-11-18T13:04:10.485Z,17.07
2022-11-18T13:06:42.043Z,21.67
2022-11-18T13:09:18.551Z,17.83
2022-11-18T13:11:50.753Z,11.83
2022-11-18T13:14:35.873Z,9.90
2022-11-18T13:17:38.684Z,28.40
2022-11-18T13:20:08.896Z,15.00
2022-11-18T13:22:50.907Z,14.43
2022-11-18T13:25:27.465Z,11.03
2022-11-18T13:28:02.719Z,7.93
2022-11-18T13:30:33.259Z,10.77
2022-11-18T13:33:05.382Z,10.13
2022-11-18T13:35:34.871Z,10.10
2022-11-18T13:38:08.293Z,5.70
2022-11-18T13:41:04.560Z,9.67
2022-11-18T13:43:34.624Z,32.60
2022-11-18T13:46:07.237Z,26.87
2022-11-18T13:48:40.616Z,7.07
2022-11-18T13:51:10.218Z,10.20
2022-11-18T13:53:41.165Z,11.97
2022-11-18T13:56:19.044Z,18.03
2022-11-18T13:59:16.317Z,8.50
2022-11-18T14:01:47.187Z,7.40
2022-11-18T14:04:24.271Z,9.20
2022-11-18T14:06:53.943Z,6.53
2022-11-18T14:09:27.497Z,6.33
2022-11-18T14:12:01.995Z,7.63
2022-11-18T14:14:33.451Z,9.90
2022-11-18T14:17:20.692Z,7.70
2022-11-18T14:19:54.401Z,8.07
2022-11-18T14:22:25.562Z,7.73
2022-11-18T14:24:59.578Z,9.60
2022-11-18T14:27:38.197Z,5.37
2022-11-18T14:30:38.429Z,7.37
2022-11-18T14:33:22.760Z,12.83
2022-11-18T14:35:57.465Z,5.60
2022-11-18T14:38:51.997Z,5.30
2022-11-18T14:41:44.842Z,3.83
2022-11-18T14:44:15.179Z,3.63
2022-11-18T14:46:46.614Z,26.43
2022-11-18T14:49:22.321Z,17.83
2022-11-18T14:51:55.285Z,10.97
2022-11-18T14:54:28.152Z,9.90
2022-11-18T14:57:00.940Z,8.07
2022-11-18T14:59:30.645Z,11.40
2022-11-18T15:02:00.580Z,6.90
2022-11-18T15:04:30.631Z,4.63
2022-11-18T15:07:02.672Z,7.90
2022-11-18T15:09:32.098Z,5.13
2022-11-18T15:12:03.653Z,11.20
2022-11-18T15:14:33.293Z,12.10
2022-11-18T15:17:02.749Z,15.50
2022-11-18T15:19:35.288Z,10.50
2022-11-18T15:22:07.606Z,8.23
2022-11-18T15:24:37.049Z,6.27
2022-11-18T15:27:06.605Z,7.47
2022-11-18T15:29:36.055Z,8.57
2022-11-18T15:32:06.634Z,9.60
2022-11-18T15:34:36.070Z,12.47
2022-11-18T15:37:08.172Z,8.83
2022-11-18T15:39:37.646Z,20.77
2022-11-18T15:42:07.249Z,22.90
2022-11-18T15:44:36.841Z,25.57
2022-11-18T15:47:06.369Z,18.57
2022-11-18T15:49:35.911Z,14.40
2022-11-18T15:52:08.667Z,7.80
2022-11-18T15:54:38.431Z,4.87
2022-11-18T15:57:08.453Z,4.50
2022-11-18T15:59:37.940Z,3.90
2022-11-18T16:02:07.393Z,3.90
2022-11-18T16:04:36.956Z,3.20
2022-11-18T16:07:09.109Z,2.50
2022-11-18T16:09:51.103Z,3.67
2022-11-18T16:12:33.112Z,3.83
2022-11-18T16:15:15.099Z,4.00
2022-11-18T16:17:44.604Z,3.93
2022-11-18T16:20:14.127Z,3.30
2022-11-18T16:22:46.366Z,5.17
2022-11-18T16:25:16.990Z,6.13
2022-11-18T16:27:46.564Z,2.97
2022-11-18T16:30:29.022Z,3.67
2022-11-18T16:32:58.465Z,3.13
2022-11-18T16:35:28.011Z,3.67
2022-11-18T16:38:00.152Z,2.40
2022-11-18T16:40:29.693Z,3.40
2022-11-18T16:42:59.428Z,2.67
2022-11-18T16:45:29.551Z,2.87
2022-11-18T16:47:59.034Z,2.90
2022-11-18T16:50:28.574Z,4.27
2022-11-18T16:53:00.592Z,5.20
2022-11-18T16:55:30.113Z,5.18
2022-11-18T16:57:59.543Z,3.00
2022-11-18T17:00:59.829Z,3.30
2022-11-18T17:03:18.612Z,3.23
2022-11-18T17:05:48.118Z,3.33
2022-11-18T17:08:20.211Z,4.30
2022-11-18T17:10:49.617Z,4.13
2022-11-18T17:13:19.108Z,3.75
2022-11-18T17:15:48.553Z,4.07
2022-11-18T17:18:17.962Z,4.10
2022-11-18T17:20:47.388Z,5.60
2022-11-18T17:23:16.932Z,4.97
2022-11-18T17:25:49.011Z,6.33
2022-11-18T17:28:18.429Z,23.67
2022-11-18T17:30:50.092Z,28.37
2022-11-18T17:33:19.876Z,6.80
2022-11-18T17:35:49.704Z,12.90
2022-11-18T17:38:20.123Z,4.70
2022-11-18T17:40:56.022Z,4.23
2022-11-18T17:43:25.770Z,9.90
2022-11-18T17:45:56.503Z,8.37
2022-11-18T17:48:26.896Z,8.83
2022-11-18T17:50:56.765Z,6.93
2022-11-18T17:53:26.223Z,9.70
2022-11-18T17:56:03.493Z,9.20
2022-11-18T17:58:33.439Z,7.10
2022-11-18T18:01:09.554Z,4.97
2022-11-18T18:03:39.371Z,8.13
2022-11-18T18:06:10.296Z,7.43
2022-11-18T18:08:40.079Z,7.33
2022-11-18T18:11:14.026Z,7.13
2022-11-18T18:13:56.756Z,4.83
2022-11-18T18:16:26.554Z,5.10
2022-11-18T18:18:56.511Z,5.30
2022-11-18T18:21:26.027Z,5.18
2022-11-18T18:23:56.019Z,3.90
2022-11-18T18:26:31.459Z,6.60
2022-11-18T18:29:01.806Z,4.10
2022-11-18T18:31:31.866Z,4.30
2022-11-18T18:34:01.327Z,3.80
2022-11-18T18:36:30.845Z,3.60
2022-11-18T18:39:02.382Z,4.65
2022-11-18T18:41:34.594Z,5.50
2022-11-18T18:44:04.391Z,4.47
2022-11-18T18:46:32.371Z,4.78
2022-11-18T18:49:06.932Z,5.05
2022-11-18T18:51:39.600Z,6.18
2022-11-18T18:54:10.219Z,9.63
2022-11-18T18:56:42.703Z,8.40
2022-11-18T18:59:12.790Z,6.18
2022-11-18T19:01:42.811Z,7.00
2022-11-18T19:04:14.125Z,6.97
2022-11-18T19:06:59.519Z,6.13
2022-11-18T19:09:29.642Z,15.02
2022-11-18T19:12:14.247Z,6.60
2022-11-18T19:14:44.056Z,6.55
2022-11-18T19:17:14.037Z,6.40
2022-11-18T19:19:56.917Z,5.20
2022-11-18T19:22:26.391Z,5.13
2022-11-18T19:24:56.430Z,8.38
2022-11-18T19:27:28.919Z,6.50
2022-11-18T19:29:58.503Z,6.20
2022-11-18T19:32:28.947Z,6.05
2022-11-18T19:34:58.496Z,5.90
2022-11-18T19:37:27.959Z,6.72
2022-11-18T19:39:58.839Z,6.75
2022-11-18T19:42:31.013Z,8.40
2022-11-18T19:45:00.558Z,8.77
2022-11-18T19:47:30.009Z,7.03
2022-11-18T19:49:59.577Z,6.43
2022-11-18T19:52:29.022Z,6.60
2022-11-18T19:54:58.506Z,7.82
2022-11-18T19:57:28.191Z,8.13
2022-11-18T20:00:00.217Z,9.57
2022-11-18T20:02:29.616Z,8.10
2022-11-18T20:05:11.484Z,6.55
2022-11-18T20:07:41.022Z,5.65
2022-11-18T20:10:11.879Z,6.00
2022-11-18T20:12:41.282Z,7.05
2022-11-18T20:15:13.874Z,6.85
2022-11-18T20:17:43.403Z,6.43
2022-11-18T20:20:13.718Z,6.45
2022-11-18T20:22:43.163Z,7.22
2022-11-18T20:25:14.290Z,7.45
2022-11-18T20:27:43.785Z,6.57
2022-11-18T20:30:17.579Z,6.40
2022-11-18T20:32:47.360Z,6.30
2022-11-18T20:35:17.387Z,7.13
2022-11-18T20:37:46.794Z,8.10
2022-11-18T20:40:16.238Z,7.38
2022-11-18T20:42:58.083Z,8.20
2022-11-18T20:45:30.143Z,8.75
2022-11-18T20:47:59.541Z,6.60
2022-11-18T20:50:28.991Z,5.53
2022-11-18T20:52:58.463Z,36.55
2022-11-18T20:55:27.931Z,17.58
2022-11-18T20:57:57.304Z,28.05
2022-11-18T21:00:26.786Z,18.70
2022-11-18T21:02:58.901Z,14.10
2022-11-18T21:05:30.626Z,9.33
2022-11-18T21:08:00.079Z,11.80
2022-11-18T21:10:29.460Z,12.90
2022-11-18T21:13:11.335Z,12.63
2022-11-18T21:15:40.757Z,6.60
2022-11-18T21:18:13.001Z,9.90
2022-11-18T21:20:54.904Z,7.20
2022-11-18T21:23:24.326Z,5.82
2022-11-18T21:25:53.957Z,5.07
2022-11-18T21:28:23.359Z,5.85
2022-11-18T21:30:52.857Z,6.65
2022-11-18T21:33:25.323Z,5.60
2022-11-18T21:35:54.769Z,4.72
2022-11-18T21:38:24.406Z,6.20
2022-11-18T21:40:53.849Z,6.50
2022-11-18T21:43:50.263Z,6.25
2022-11-18T21:46:13.977Z,6.20
2022-11-18T21:48:47.143Z,6.43
2022-11-18T21:51:18.691Z,7.28
2022-11-18T21:53:48.545Z,8.25
2022-11-18T21:56:20.408Z,9.85
2022-11-18T21:58:49.887Z,8.30
2022-11-18T22:01:21.093Z,10.35
2022-11-18T22:03:55.677Z,8.65
2022-11-18T22:06:27.117Z,7.07
2022-11-18T22:08:56.493Z,8.52
2022-11-18T22:11:26.142Z,9.98
2022-11-18T22:13:55.976Z,8.13
2022-11-18T22:16:27.141Z,8.38
2022-11-18T22:19:06.655Z,12.70
2022-11-18T22:21:37.493Z,10.20
2022-11-18T22:24:07.209Z,10.40
2022-11-18T22:26:36.647Z,11.57
2022-11-18T22:29:06.225Z,11.40
2022-11-18T22:31:35.665Z,9.95
2022-11-18T22:34:08.000Z,9.63
2022-11-18T22:36:37.634Z,9.38
2022-11-18T22:39:07.175Z,9.43
2022-11-18T22:41:49.306Z,8.50
2022-11-18T22:44:19.502Z,9.23
2022-11-18T22:46:48.868Z,8.50
2022-11-18T22:49:21.314Z,9.63
2022-11-18T22:51:51.085Z,8.90
2022-11-18T22:54:38.316Z,9.43
2022-11-18T22:57:08.754Z,9.55
2022-11-18T22:59:38.246Z,9.15
2022-11-18T23:02:08.167Z,23.33
2022-11-18T23:04:40.158Z,10.02
2022-11-18T23:07:09.753Z,10.82
2022-11-18T23:09:39.158Z,9.32
2022-11-18T23:12:21.252Z,9.65
2022-11-18T23:14:50.751Z,13.15
2022-11-18T23:17:20.798Z,9.70
2022-11-18T23:19:52.748Z,12.88
2022-11-18T23:22:22.164Z,9.38
2022-11-18T23:24:51.559Z,8.73
2022-11-18T23:27:21.025Z,11.45
2022-11-18T23:29:50.454Z,9.25
2022-11-18T23:32:19.928Z,9.85
2022-11-18T23:34:52.321Z,11.85
2022-11-18T23:37:21.737Z,10.23
2022-11-18T23:39:52.664Z,9.55
2022-11-18T23:42:22.063Z,10.70
2022-11-18T23:44:52.840Z,10.63
2022-11-18T23:47:22.322Z,9.80
2022-11-18T23:49:54.315Z,10.00
2022-11-18T23:52:23.766Z,9.55
2022-11-18T23:54:54.565Z,9.70
2022-11-18T23:57:24.032Z,10.48
2022-11-18T23:59:53.389Z,8.38
